e-Mail: Password: Lost your password? Click here. - Register a new user

c h a v e z j u a r e z . c o m

Weather - Tiempo - Wetter - Temps

METAR DATA MMMX (Mexico City)

Mexico City / Licenci, Mexico (MMMX) 19-26N 099-06W
Oct 16, 2019 - 12:23 PM EDT / 2019.10.16 1623 UTC
Wind: from the NNE (030 degrees) at 6 MPH (5 KT):0
Visibility: 8 mile(s):0
Sky conditions: mostly cloudy
Temperature: 68 F (20 C)
Dew Point: 51 F (11 C)
Relative Humidity: 56%
Pressure (altimeter): 30.28 in. Hg (1025 hPa)
ob: MMMX 161623Z 03005KT 8SM BKN020 BKN230 20/11 A3028 NOSIG RMK 8/802 HZY MDT CU
cycle: 16

Mexico City

St. Prex




Current weather alarms for Switzerland


www.wetteralarm.ch